sensor_id;sensor_type;location;lat;lon;timestamp;temperature;humidity
10459;DHT22;5277;48.722;8.736;2023-07-31T00:00:12;14.90;99.90
10459;DHT22;5277;48.722;8.736;2023-07-31T00:02:41;15.00;99.90
10459;DHT22;5277;48.722;8.736;2023-07-31T00:08:09;14.90;99.90
10459;DHT22;5277;48.722;8.736;2023-07-31T00:10:40;14.90;99.90
10459;DHT22;5277;48.722;8.736;2023-07-31T00:13:11;14.90;99.90
10459;DHT22;5277;48.722;8.736;2023-07-31T00:15:47;14.90;99.90
10459;DHT22;5277;48.722;8.736;2023-07-31T00:18:13;14.80;99.90
10459;DHT22;5277;48.722;8.736;2023-07-31T00:20:52;14.80;99.90
10459;DHT22;5277;48.722;8.736;2023-07-31T00:23:29;14.70;99.90
10459;DHT22;5277;48.722;8.736;2023-07-31T00:25:55;14.70;99.90
10459;DHT22;5277;48.722;8.736;2023-07-31T00:28:21;14.70;99.90
10459;DHT22;5277;48.722;8.736;2023-07-31T00:30:49;14.60;99.90
10459;DHT22;5277;48.722;8.736;2023-07-31T00:33:25;14.60;99.90
10459;DHT22;5277;48.722;8.736;2023-07-31T00:35:58;14.50;99.90
10459;DHT22;5277;48.722;8.736;2023-07-31T00:38:33;14.50;99.90
10459;DHT22;5277;48.722;8.736;2023-07-31T00:40:59;14.50;99.90
10459;DHT22;5277;48.722;8.736;2023-07-31T00:43:25;14.50;99.90
10459;DHT22;5277;48.722;8.736;2023-07-31T00:45:54;14.50;99.90
10459;DHT22;5277;48.722;8.736;2023-07-31T00:48:25;14.50;99.90
10459;DHT22;5277;48.722;8.736;2023-07-31T00:50:51;14.40;99.90
10459;DHT22;5277;48.722;8.736;2023-07-31T00:53:27;14.40;99.90
10459;DHT22;5277;48.722;8.736;2023-07-31T00:55:59;14.40;99.90
10459;DHT22;5277;48.722;8.736;2023-07-31T00:58:30;14.40;99.90
10459;DHT22;5277;48.722;8.736;2023-07-31T01:00:59;14.30;99.90
10459;DHT22;5277;48.722;8.736;2023-07-31T01:03:30;14.20;99.90
10459;DHT22;5277;48.722;8.736;2023-07-31T01:12:17;14.20;99.90
10459;DHT22;5277;48.722;8.736;2023-07-31T01:15:22;14.10;99.90
10459;DHT22;5277;48.722;8.736;2023-07-31T01:18:08;14.10;99.90
10459;DHT22;5277;48.722;8.736;2023-07-31T01:20:42;14.00;99.90
10459;DHT22;5277;48.722;8.736;2023-07-31T01:23:42;14.10;99.90
10459;DHT22;5277;48.722;8.736;2023-07-31T01:26:33;14.10;99.90
10459;DHT22;5277;48.722;8.736;2023-07-31T01:29:48;14.00;99.90
10459;DHT22;5277;48.722;8.736;2023-07-31T01:32:43;14.10;99.90
10459;DHT22;5277;48.722;8.736;2023-07-31T01:35:17;14.10;99.90
10459;DHT22;5277;48.722;8.736;2023-07-31T01:38:07;14.10;99.90
10459;DHT22;5277;48.722;8.736;2023-07-31T01:40:50;14.10;99.90
10459;DHT22;5277;48.722;8.736;2023-07-31T01:43:23;14.10;99.90
10459;DHT22;5277;48.722;8.736;2023-07-31T01:46:07;14.10;99.90
10459;DHT22;5277;48.722;8.736;2023-07-31T01:48:45;14.10;99.90
10459;DHT22;5277;48.722;8.736;2023-07-31T01:51:11;14.00;99.90
10459;DHT22;5277;48.722;8.736;2023-07-31T01:53:51;14.00;99.90
10459;DHT22;5277;48.722;8.736;2023-07-31T01:56:27;14.10;99.90
10459;DHT22;5277;48.722;8.736;2023-07-31T01:58:58;14.00;99.90
10459;DHT22;5277;48.722;8.736;2023-07-31T02:01:31;13.90;99.90
10459;DHT22;5277;48.722;8.736;2023-07-31T02:04:00;13.90;99.90
10459;DHT22;5277;48.722;8.736;2023-07-31T02:06:45;13.90;99.90
10459;DHT22;5277;48.722;8.736;2023-07-31T02:09:36;13.90;99.90
10459;DHT22;5277;48.722;8.736;2023-07-31T02:12:12;13.90;99.90
10459;DHT22;5277;48.722;8.736;2023-07-31T02:14:43;13.90;99.90
10459;DHT22;5277;48.722;8.736;2023-07-31T02:17:30;13.90;99.90
10459;DHT22;5277;48.722;8.736;2023-07-31T02:20:19;13.80;99.90
10459;DHT22;5277;48.722;8.736;2023-07-31T02:22:47;13.80;99.90
10459;DHT22;5277;48.722;8.736;2023-07-31T02:25:57;13.70;99.90
10459;DHT22;5277;48.722;8.736;2023-07-31T02:28:58;13.80;99.90
10459;DHT22;5277;48.722;8.736;2023-07-31T02:31:35;13.80;99.90
10459;DHT22;5277;48.722;8.736;2023-07-31T02:34:06;13.70;99.90
10459;DHT22;5277;48.722;8.736;2023-07-31T02:36:52;13.80;99.90
10459;DHT22;5277;48.722;8.736;2023-07-31T02:39:26;13.70;99.90
10459;DHT22;5277;48.722;8.736;2023-07-31T02:42:11;13.70;99.90
10459;DHT22;5277;48.722;8.736;2023-07-31T02:48:02;13.70;99.90
10459;DHT22;5277;48.722;8.736;2023-07-31T02:50:56;13.70;99.90
10459;DHT22;5277;48.722;8.736;2023-07-31T02:53:42;13.70;99.90
10459;DHT22;5277;48.722;8.736;2023-07-31T02:58:55;13.70;99.90
10459;DHT22;5277;48.722;8.736;2023-07-31T03:01:29;13.70;99.90
10459;DHT22;5277;48.722;8.736;2023-07-31T03:04:02;13.70;99.90
10459;DHT22;5277;48.722;8.736;2023-07-31T03:06:35;13.60;99.90
10459;DHT22;5277;48.722;8.736;2023-07-31T03:09:04;13.60;99.90
10459;DHT22;5277;48.722;8.736;2023-07-31T03:11:49;13.60;99.90
10459;DHT22;5277;48.722;8.736;2023-07-31T03:14:23;13.70;99.90
10459;DHT22;5277;48.722;8.736;2023-07-31T03:17:02;13.70;99.90
10459;DHT22;5277;48.722;8.736;2023-07-31T03:19:34;13.60;99.90
10459;DHT22;5277;48.722;8.736;2023-07-31T03:22:08;13.80;99.90
10459;DHT22;5277;48.722;8.736;2023-07-31T03:24:44;13.70;99.90
10459;DHT22;5277;48.722;8.736;2023-07-31T03:27:33;13.60;99.90
10459;DHT22;5277;48.722;8.736;2023-07-31T03:30:08;13.60;99.90
10459;DHT22;5277;48.722;8.736;2023-07-31T03:32:41;13.60;99.90
10459;DHT22;5277;48.722;8.736;2023-07-31T03:38:28;13.60;99.90
10459;DHT22;5277;48.722;8.736;2023-07-31T03:41:05;13.60;99.90
10459;DHT22;5277;48.722;8.736;2023-07-31T03:43:49;13.60;99.90
10459;DHT22;5277;48.722;8.736;2023-07-31T03:46:27;13.60;99.90
10459;DHT22;5277;48.722;8.736;2023-07-31T03:48:55;13.70;99.90
10459;DHT22;5277;48.722;8.736;2023-07-31T03:51:24;13.70;99.90
10459;DHT22;5277;48.722;8.736;2023-07-31T03:53:53;13.80;99.90
10459;DHT22;5277;48.722;8.736;2023-07-31T03:56:44;13.80;99.90
10459;DHT22;5277;48.722;8.736;2023-07-31T03:59:21;13.90;99.90
10459;DHT22;5277;48.722;8.736;2023-07-31T04:02:00;14.00;99.90
10459;DHT22;5277;48.722;8.736;2023-07-31T04:04:34;13.90;99.90
10459;DHT22;5277;48.722;8.736;2023-07-31T04:07:02;13.90;99.90
10459;DHT22;5277;48.722;8.736;2023-07-31T04:09:34;14.00;99.90
10459;DHT22;5277;48.722;8.736;2023-07-31T04:12:16;14.00;99.90
10459;DHT22;5277;48.722;8.736;2023-07-31T04:15:03;14.00;99.90
10459;DHT22;5277;48.722;8.736;2023-07-31T04:17:37;14.10;99.90
10459;DHT22;5277;48.722;8.736;2023-07-31T04:20:21;14.00;99.90
10459;DHT22;5277;48.722;8.736;2023-07-31T04:25:42;14.00;99.90
10459;DHT22;5277;48.722;8.736;2023-07-31T04:28:20;14.10;99.90
10459;DHT22;5277;48.722;8.736;2023-07-31T04:31:17;14.10;99.90
10459;DHT22;5277;48.722;8.736;2023-07-31T04:33:55;14.10;99.90
10459;DHT22;5277;48.722;8.736;2023-07-31T04:36:24;14.20;99.90
10459;DHT22;5277;48.722;8.736;2023-07-31T04:39:06;14.30;99.90
10459;DHT22;5277;48.722;8.736;2023-07-31T04:41:44;14.30;99.90
10459;DHT22;5277;48.722;8.736;2023-07-31T04:44:15;14.30;99.90
10459;DHT22;5277;48.722;8.736;2023-07-31T04:46:56;14.40;99.90
10459;DHT22;5277;48.722;8.736;2023-07-31T04:49:27;14.40;99.90
10459;DHT22;5277;48.722;8.736;2023-07-31T04:58:25;14.30;99.90
10459;DHT22;5277;48.722;8.736;2023-07-31T05:01:16;14.30;99.90
10459;DHT22;5277;48.722;8.736;2023-07-31T05:06:28;14.50;99.90
10459;DHT22;5277;48.722;8.736;2023-07-31T05:09:27;14.50;99.90
10459;DHT22;5277;48.722;8.736;2023-07-31T05:12:18;14.60;99.90
10459;DHT22;5277;48.722;8.736;2023-07-31T05:18:19;14.80;99.90
10459;DHT22;5277;48.722;8.736;2023-07-31T05:21:03;14.90;99.90
10459;DHT22;5277;48.722;8.736;2023-07-31T05:23:46;15.00;99.90
10459;DHT22;5277;48.722;8.736;2023-07-31T05:29:29;15.10;99.90
10459;DHT22;5277;48.722;8.736;2023-07-31T05:32:11;15.20;99.90
10459;DHT22;5277;48.722;8.736;2023-07-31T05:37:55;15.30;99.90
10459;DHT22;5277;48.722;8.736;2023-07-31T05:40:47;15.40;99.90
10459;DHT22;5277;48.722;8.736;2023-07-31T05:43:24;15.60;99.90
10459;DHT22;5277;48.722;8.736;2023-07-31T05:46:11;15.60;99.90
10459;DHT22;5277;48.722;8.736;2023-07-31T05:48:47;15.70;99.90
10459;DHT22;5277;48.722;8.736;2023-07-31T05:51:15;15.70;99.90
10459;DHT22;5277;48.722;8.736;2023-07-31T05:53:55;15.80;99.90
10459;DHT22;5277;48.722;8.736;2023-07-31T05:56:39;15.70;99.90
10459;DHT22;5277;48.722;8.736;2023-07-31T05:59:09;15.90;99.90
10459;DHT22;5277;48.722;8.736;2023-07-31T06:01:42;15.90;99.90
10459;DHT22;5277;48.722;8.736;2023-07-31T06:04:12;16.00;99.90
10459;DHT22;5277;48.722;8.736;2023-07-31T06:07:02;16.10;99.90
10459;DHT22;5277;48.722;8.736;2023-07-31T06:10:02;16.20;99.90
10459;DHT22;5277;48.722;8.736;2023-07-31T06:13:00;16.40;99.90
10459;DHT22;5277;48.722;8.736;2023-07-31T06:16:02;16.50;99.90
10459;DHT22;5277;48.722;8.736;2023-07-31T06:18:40;16.70;99.90
10459;DHT22;5277;48.722;8.736;2023-07-31T06:21:06;16.90;99.90
10459;DHT22;5277;48.722;8.736;2023-07-31T06:23:34;17.10;99.90
10459;DHT22;5277;48.722;8.736;2023-07-31T06:26:10;17.40;99.90
10459;DHT22;5277;48.722;8.736;2023-07-31T06:28:39;17.60;99.90
10459;DHT22;5277;48.722;8.736;2023-07-31T06:31:15;17.70;99.90
10459;DHT22;5277;48.722;8.736;2023-07-31T06:33:53;17.80;99.90
10459;DHT22;5277;48.722;8.736;2023-07-31T06:36:25;17.80;99.90
10459;DHT22;5277;48.722;8.736;2023-07-31T06:39:31;17.70;99.90
10459;DHT22;5277;48.722;8.736;2023-07-31T06:42:18;17.80;99.90
10459;DHT22;5277;48.722;8.736;2023-07-31T06:45:07;17.90;99.90
10459;DHT22;5277;48.722;8.736;2023-07-31T06:48:12;17.90;99.90
10459;DHT22;5277;48.722;8.736;2023-07-31T06:50:50;18.10;99.90
10459;DHT22;5277;48.722;8.736;2023-07-31T06:53:46;18.10;99.90
10459;DHT22;5277;48.722;8.736;2023-07-31T06:56:37;18.00;99.90
10459;DHT22;5277;48.722;8.736;2023-07-31T07:07:49;18.60;99.50
10459;DHT22;5277;48.722;8.736;2023-07-31T07:10:16;18.80;99.50
10459;DHT22;5277;48.722;8.736;2023-07-31T07:12:42;18.90;98.60
10459;DHT22;5277;48.722;8.736;2023-07-31T07:15:08;19.00;98.30
10459;DHT22;5277;48.722;8.736;2023-07-31T07:17:34;19.00;98.80
10459;DHT22;5277;48.722;8.736;2023-07-31T07:20:00;19.00;98.40
10459;DHT22;5277;48.722;8.736;2023-07-31T07:22:26;18.90;99.10
10459;DHT22;5277;48.722;8.736;2023-07-31T07:24:53;18.80;98.60
10459;DHT22;5277;48.722;8.736;2023-07-31T07:27:18;18.80;98.90
10459;DHT22;5277;48.722;8.736;2023-07-31T07:29:45;18.80;98.70
10459;DHT22;5277;48.722;8.736;2023-07-31T07:32:10;18.80;99.40
10459;DHT22;5277;48.722;8.736;2023-07-31T07:34:37;18.80;98.90
10459;DHT22;5277;48.722;8.736;2023-07-31T07:37:02;18.90;99.30
10459;DHT22;5277;48.722;8.736;2023-07-31T07:39:28;18.80;98.60
10459;DHT22;5277;48.722;8.736;2023-07-31T07:41:54;18.90;98.40
10459;DHT22;5277;48.722;8.736;2023-07-31T07:44:19;19.00;98.90
10459;DHT22;5277;48.722;8.736;2023-07-31T07:46:45;19.10;98.70
10459;DHT22;5277;48.722;8.736;2023-07-31T07:49:11;19.30;98.40
10459;DHT22;5277;48.722;8.736;2023-07-31T07:51:36;19.50;98.30
10459;DHT22;5277;48.722;8.736;2023-07-31T07:54:02;19.60;98.20
10459;DHT22;5277;48.722;8.736;2023-07-31T07:56:28;19.60;98.00
10459;DHT22;5277;48.722;8.736;2023-07-31T07:58:54;19.60;97.50
10459;DHT22;5277;48.722;8.736;2023-07-31T08:01:20;19.60;98.20
10459;DHT22;5277;48.722;8.736;2023-07-31T08:03:47;19.60;98.50
10459;DHT22;5277;48.722;8.736;2023-07-31T08:06:13;19.60;98.90
10459;DHT22;5277;48.722;8.736;2023-07-31T08:08:39;19.60;98.50
10459;DHT22;5277;48.722;8.736;2023-07-31T08:11:05;19.60;97.20
10459;DHT22;5277;48.722;8.736;2023-07-31T08:13:30;19.50;97.70
10459;DHT22;5277;48.722;8.736;2023-07-31T08:15:56;19.50;97.30
10459;DHT22;5277;48.722;8.736;2023-07-31T08:18:21;19.50;98.10
10459;DHT22;5277;48.722;8.736;2023-07-31T08:20:47;19.50;97.80
10459;DHT22;5277;48.722;8.736;2023-07-31T08:23:13;19.40;98.10
10459;DHT22;5277;48.722;8.736;2023-07-31T08:25:39;19.50;97.90
10459;DHT22;5277;48.722;8.736;2023-07-31T08:28:05;19.50;97.20
10459;DHT22;5277;48.722;8.736;2023-07-31T08:30:31;19.50;97.60
10459;DHT22;5277;48.722;8.736;2023-07-31T08:32:56;19.50;98.10
10459;DHT22;5277;48.722;8.736;2023-07-31T08:35:23;19.50;98.80
10459;DHT22;5277;48.722;8.736;2023-07-31T08:37:49;19.50;98.20
10459;DHT22;5277;48.722;8.736;2023-07-31T08:40:15;19.70;97.20
10459;DHT22;5277;48.722;8.736;2023-07-31T08:42:44;20.00;97.00
10459;DHT22;5277;48.722;8.736;2023-07-31T08:45:17;20.30;96.70
10459;DHT22;5277;48.722;8.736;2023-07-31T08:47:48;20.50;95.80
10459;DHT22;5277;48.722;8.736;2023-07-31T08:50:16;20.60;95.70
10459;DHT22;5277;48.722;8.736;2023-07-31T08:52:42;20.80;96.50
10459;DHT22;5277;48.722;8.736;2023-07-31T08:55:08;20.80;95.20
10459;DHT22;5277;48.722;8.736;2023-07-31T08:57:36;20.80;94.90
10459;DHT22;5277;48.722;8.736;2023-07-31T09:00:07;20.90;93.90
10459;DHT22;5277;48.722;8.736;2023-07-31T09:02:46;20.90;93.70
10459;DHT22;5277;48.722;8.736;2023-07-31T09:05:12;21.00;93.30
10459;DHT22;5277;48.722;8.736;2023-07-31T09:07:38;21.10;93.00
10459;DHT22;5277;48.722;8.736;2023-07-31T09:10:05;21.30;93.80
10459;DHT22;5277;48.722;8.736;2023-07-31T09:12:31;21.30;93.30
10459;DHT22;5277;48.722;8.736;2023-07-31T09:14:57;21.40;93.50
10459;DHT22;5277;48.722;8.736;2023-07-31T09:17:30;21.40;93.50
10459;DHT22;5277;48.722;8.736;2023-07-31T09:19:56;21.30;93.10
10459;DHT22;5277;48.722;8.736;2023-07-31T09:22:33;21.30;93.00
10459;DHT22;5277;48.722;8.736;2023-07-31T09:25:24;21.50;92.30
10459;DHT22;5277;48.722;8.736;2023-07-31T09:27:56;21.70;92.40
10459;DHT22;5277;48.722;8.736;2023-07-31T09:30:22;21.80;92.30
10459;DHT22;5277;48.722;8.736;2023-07-31T09:32:49;21.80;92.20
10459;DHT22;5277;48.722;8.736;2023-07-31T09:35:34;21.80;91.90
10459;DHT22;5277;48.722;8.736;2023-07-31T09:38:11;21.90;91.70
10459;DHT22;5277;48.722;8.736;2023-07-31T09:40:39;21.90;91.50
10459;DHT22;5277;48.722;8.736;2023-07-31T09:43:13;22.00;91.60
10459;DHT22;5277;48.722;8.736;2023-07-31T09:45:41;22.20;91.60
10459;DHT22;5277;48.722;8.736;2023-07-31T09:48:07;22.50;90.80
10459;DHT22;5277;48.722;8.736;2023-07-31T09:50:41;22.80;90.70
10459;DHT22;5277;48.722;8.736;2023-07-31T09:53:08;23.20;90.20
10459;DHT22;5277;48.722;8.736;2023-07-31T09:55:34;23.40;85.80
10459;DHT22;5277;48.722;8.736;2023-07-31T09:58:03;23.70;87.40
10459;DHT22;5277;48.722;8.736;2023-07-31T10:00:30;23.80;84.30
10459;DHT22;5277;48.722;8.736;2023-07-31T10:02:59;24.10;86.60
10459;DHT22;5277;48.722;8.736;2023-07-31T10:05:36;24.50;84.00
10459;DHT22;5277;48.722;8.736;2023-07-31T10:08:02;24.80;81.20
10459;DHT22;5277;48.722;8.736;2023-07-31T10:10:28;25.00;81.60
10459;DHT22;5277;48.722;8.736;2023-07-31T10:12:56;25.20;80.00
10459;DHT22;5277;48.722;8.736;2023-07-31T10:15:22;25.40;78.80
10459;DHT22;5277;48.722;8.736;2023-07-31T10:17:49;25.50;78.80
10459;DHT22;5277;48.722;8.736;2023-07-31T10:20:16;25.60;78.10
10459;DHT22;5277;48.722;8.736;2023-07-31T10:22:44;26.10;78.10
10459;DHT22;5277;48.722;8.736;2023-07-31T10:25:13;26.40;76.30
10459;DHT22;5277;48.722;8.736;2023-07-31T10:27:40;26.70;72.30
10459;DHT22;5277;48.722;8.736;2023-07-31T10:30:08;26.90;74.10
10459;DHT22;5277;48.722;8.736;2023-07-31T10:32:35;27.20;72.10
10459;DHT22;5277;48.722;8.736;2023-07-31T10:35:03;27.40;69.10
10459;DHT22;5277;48.722;8.736;2023-07-31T10:37:36;27.60;69.30
10459;DHT22;5277;48.722;8.736;2023-07-31T10:40:13;28.00;68.40
10459;DHT22;5277;48.722;8.736;2023-07-31T10:45:13;28.70;65.10
10459;DHT22;5277;48.722;8.736;2023-07-31T10:47:46;29.10;63.40
10459;DHT22;5277;48.722;8.736;2023-07-31T10:50:22;29.10;63.40
10459;DHT22;5277;48.722;8.736;2023-07-31T10:52:51;28.50;60.20
10459;DHT22;5277;48.722;8.736;2023-07-31T10:57:49;27.70;63.90
10459;DHT22;5277;48.722;8.736;2023-07-31T11:00:26;27.10;61.70
10459;DHT22;5277;48.722;8.736;2023-07-31T11:03:06;26.70;65.80
10459;DHT22;5277;48.722;8.736;2023-07-31T11:08:34;26.00;68.00
10459;DHT22;5277;48.722;8.736;2023-07-31T11:13:29;25.60;70.90
10459;DHT22;5277;48.722;8.736;2023-07-31T11:15:55;25.40;71.60
10459;DHT22;5277;48.722;8.736;2023-07-31T11:18:21;25.30;72.80
10459;DHT22;5277;48.722;8.736;2023-07-31T11:20:46;25.10;72.70
10459;DHT22;5277;48.722;8.736;2023-07-31T11:23:12;25.10;75.60
10459;DHT22;5277;48.722;8.736;2023-07-31T11:25:39;25.00;75.80
10459;DHT22;5277;48.722;8.736;2023-07-31T11:28:10;25.00;76.80
10459;DHT22;5277;48.722;8.736;2023-07-31T11:30:37;24.70;76.10
10459;DHT22;5277;48.722;8.736;2023-07-31T11:33:04;24.60;74.70
10459;DHT22;5277;48.722;8.736;2023-07-31T11:35:31;24.50;75.60
10459;DHT22;5277;48.722;8.736;2023-07-31T11:37:57;24.40;76.50
10459;DHT22;5277;48.722;8.736;2023-07-31T11:40:23;24.30;76.20
10459;DHT22;5277;48.722;8.736;2023-07-31T11:42:54;24.20;75.30
10459;DHT22;5277;48.722;8.736;2023-07-31T11:45:20;24.00;74.70
10459;DHT22;5277;48.722;8.736;2023-07-31T11:47:45;23.90;75.40
10459;DHT22;5277;48.722;8.736;2023-07-31T11:50:11;23.80;74.50
10459;DHT22;5277;48.722;8.736;2023-07-31T11:52:42;23.90;76.80
10459;DHT22;5277;48.722;8.736;2023-07-31T11:55:09;23.80;76.50
10459;DHT22;5277;48.722;8.736;2023-07-31T11:57:37;23.80;77.80
10459;DHT22;5277;48.722;8.736;2023-07-31T12:00:04;23.80;76.60
10459;DHT22;5277;48.722;8.736;2023-07-31T12:02:31;23.70;80.30
10459;DHT22;5277;48.722;8.736;2023-07-31T12:04:56;23.70;80.70
10459;DHT22;5277;48.722;8.736;2023-07-31T12:07:24;23.70;79.60
10459;DHT22;5277;48.722;8.736;2023-07-31T12:09:54;23.70;79.80
10459;DHT22;5277;48.722;8.736;2023-07-31T12:12:21;23.80;78.70
10459;DHT22;5277;48.722;8.736;2023-07-31T12:14:47;23.70;79.60
10459;DHT22;5277;48.722;8.736;2023-07-31T12:17:14;23.70;79.00
10459;DHT22;5277;48.722;8.736;2023-07-31T12:19:40;23.80;79.50
10459;DHT22;5277;48.722;8.736;2023-07-31T12:22:14;23.70;79.60
10459;DHT22;5277;48.722;8.736;2023-07-31T12:24:41;23.80;78.70
10459;DHT22;5277;48.722;8.736;2023-07-31T12:27:15;23.80;80.20
10459;DHT22;5277;48.722;8.736;2023-07-31T12:29:43;24.30;81.40
10459;DHT22;5277;48.722;8.736;2023-07-31T12:32:25;24.90;78.60
10459;DHT22;5277;48.722;8.736;2023-07-31T12:34:51;25.20;75.30
10459;DHT22;5277;48.722;8.736;2023-07-31T12:37:17;25.40;75.70
10459;DHT22;5277;48.722;8.736;2023-07-31T12:39:43;25.60;74.40
10459;DHT22;5277;48.722;8.736;2023-07-31T12:42:08;25.50;73.00
10459;DHT22;5277;48.722;8.736;2023-07-31T12:44:34;25.50;73.70
10459;DHT22;5277;48.722;8.736;2023-07-31T12:47:05;25.70;75.60
10459;DHT22;5277;48.722;8.736;2023-07-31T12:49:30;26.50;74.10
10459;DHT22;5277;48.722;8.736;2023-07-31T12:51:56;26.90;68.80
10459;DHT22;5277;48.722;8.736;2023-07-31T12:54:22;27.50;69.20
10459;DHT22;5277;48.722;8.736;2023-07-31T12:56:47;28.40;69.30
10459;DHT22;5277;48.722;8.736;2023-07-31T12:59:13;28.40;64.60
10459;DHT22;5277;48.722;8.736;2023-07-31T13:01:39;28.20;65.10
10459;DHT22;5277;48.722;8.736;2023-07-31T13:04:05;28.20;64.40
10459;DHT22;5277;48.722;8.736;2023-07-31T13:06:30;28.20;63.90
10459;DHT22;5277;48.722;8.736;2023-07-31T13:08:56;28.20;64.40
10459;DHT22;5277;48.722;8.736;2023-07-31T13:11:21;27.90;65.90
10459;DHT22;5277;48.722;8.736;2023-07-31T13:13:47;27.70;65.20
10459;DHT22;5277;48.722;8.736;2023-07-31T13:16:12;27.60;67.00
10459;DHT22;5277;48.722;8.736;2023-07-31T13:18:38;27.30;67.20
10459;DHT22;5277;48.722;8.736;2023-07-31T13:21:04;27.10;68.90
10459;DHT22;5277;48.722;8.736;2023-07-31T13:23:29;26.90;68.70
10459;DHT22;5277;48.722;8.736;2023-07-31T13:25:55;26.60;70.90
10459;DHT22;5277;48.722;8.736;2023-07-31T13:28:20;26.40;70.30
10459;DHT22;5277;48.722;8.736;2023-07-31T13:30:46;26.20;71.80
10459;DHT22;5277;48.722;8.736;2023-07-31T13:33:11;26.10;71.00
10459;DHT22;5277;48.722;8.736;2023-07-31T13:35:37;25.90;72.40
10459;DHT22;5277;48.722;8.736;2023-07-31T13:38:02;25.60;73.70
10459;DHT22;5277;48.722;8.736;2023-07-31T13:40:28;25.40;76.30
10459;DHT22;5277;48.722;8.736;2023-07-31T13:42:53;25.20;76.60
10459;DHT22;5277;48.722;8.736;2023-07-31T13:45:21;25.10;80.10
10459;DHT22;5277;48.722;8.736;2023-07-31T13:47:46;25.00;79.80
10459;DHT22;5277;48.722;8.736;2023-07-31T13:50:12;24.90;79.80
10459;DHT22;5277;48.722;8.736;2023-07-31T13:52:37;24.80;77.70
10459;DHT22;5277;48.722;8.736;2023-07-31T13:55:03;24.70;78.70
10459;DHT22;5277;48.722;8.736;2023-07-31T13:57:29;24.70;78.10
10459;DHT22;5277;48.722;8.736;2023-07-31T13:59:54;24.70;76.50
10459;DHT22;5277;48.722;8.736;2023-07-31T14:02:20;24.60;75.20
10459;DHT22;5277;48.722;8.736;2023-07-31T14:04:45;24.50;74.10
10459;DHT22;5277;48.722;8.736;2023-07-31T14:07:11;24.50;75.80
10459;DHT22;5277;48.722;8.736;2023-07-31T14:09:37;24.60;76.20
10459;DHT22;5277;48.722;8.736;2023-07-31T14:12:02;24.50;77.00
10459;DHT22;5277;48.722;8.736;2023-07-31T14:14:28;24.60;75.00
10459;DHT22;5277;48.722;8.736;2023-07-31T14:16:53;24.60;75.00
10459;DHT22;5277;48.722;8.736;2023-07-31T14:19:19;24.70;74.60
10459;DHT22;5277;48.722;8.736;2023-07-31T14:21:45;24.60;75.10
10459;DHT22;5277;48.722;8.736;2023-07-31T14:24:11;24.50;73.10
10459;DHT22;5277;48.722;8.736;2023-07-31T14:26:37;24.60;74.90
10459;DHT22;5277;48.722;8.736;2023-07-31T14:29:02;24.50;74.70
10459;DHT22;5277;48.722;8.736;2023-07-31T14:31:28;24.40;78.80
10459;DHT22;5277;48.722;8.736;2023-07-31T14:33:53;24.40;77.50
10459;DHT22;5277;48.722;8.736;2023-07-31T14:36:19;24.40;76.30
10459;DHT22;5277;48.722;8.736;2023-07-31T14:38:44;24.40;79.60
10459;DHT22;5277;48.722;8.736;2023-07-31T14:41:10;24.40;79.00
10459;DHT22;5277;48.722;8.736;2023-07-31T14:43:36;24.30;76.90
10459;DHT22;5277;48.722;8.736;2023-07-31T14:46:01;24.40;78.10
10459;DHT22;5277;48.722;8.736;2023-07-31T14:48:27;24.30;78.30
10459;DHT22;5277;48.722;8.736;2023-07-31T14:50:53;24.20;77.60
10459;DHT22;5277;48.722;8.736;2023-07-31T14:53:19;24.20;77.20
10459;DHT22;5277;48.722;8.736;2023-07-31T14:55:44;24.00;77.60
10459;DHT22;5277;48.722;8.736;2023-07-31T14:58:10;24.00;77.40
10459;DHT22;5277;48.722;8.736;2023-07-31T15:00:36;23.90;79.00
10459;DHT22;5277;48.722;8.736;2023-07-31T15:03:02;23.80;78.30
10459;DHT22;5277;48.722;8.736;2023-07-31T15:05:28;23.90;78.90
10459;DHT22;5277;48.722;8.736;2023-07-31T15:07:54;23.90;80.10
10459;DHT22;5277;48.722;8.736;2023-07-31T15:10:19;23.90;78.50
10459;DHT22;5277;48.722;8.736;2023-07-31T15:12:45;23.90;78.20
10459;DHT22;5277;48.722;8.736;2023-07-31T15:15:10;24.00;79.30
10459;DHT22;5277;48.722;8.736;2023-07-31T15:17:36;24.00;79.60
10459;DHT22;5277;48.722;8.736;2023-07-31T15:20:02;23.90;79.10
10459;DHT22;5277;48.722;8.736;2023-07-31T15:22:27;24.00;77.80
10459;DHT22;5277;48.722;8.736;2023-07-31T15:24:53;23.90;78.30
10459;DHT22;5277;48.722;8.736;2023-07-31T15:27:19;23.90;79.50
10459;DHT22;5277;48.722;8.736;2023-07-31T15:29:44;23.90;79.40
10459;DHT22;5277;48.722;8.736;2023-07-31T15:32:10;23.80;77.30
10459;DHT22;5277;48.722;8.736;2023-07-31T15:34:35;23.90;78.60
10459;DHT22;5277;48.722;8.736;2023-07-31T15:37:01;23.80;78.10
10459;DHT22;5277;48.722;8.736;2023-07-31T15:39:26;23.80;78.10
10459;DHT22;5277;48.722;8.736;2023-07-31T15:41:52;23.70;79.80
10459;DHT22;5277;48.722;8.736;2023-07-31T15:44:18;23.70;82.70
10459;DHT22;5277;48.722;8.736;2023-07-31T15:46:44;23.70;83.60
10459;DHT22;5277;48.722;8.736;2023-07-31T15:49:10;23.60;82.40
10459;DHT22;5277;48.722;8.736;2023-07-31T15:51:35;23.70;81.50
10459;DHT22;5277;48.722;8.736;2023-07-31T15:54:01;23.70;81.50
10459;DHT22;5277;48.722;8.736;2023-07-31T15:56:26;23.70;80.70
10459;DHT22;5277;48.722;8.736;2023-07-31T15:58:52;23.70;84.30
10459;DHT22;5277;48.722;8.736;2023-07-31T16:01:20;23.70;83.30
10459;DHT22;5277;48.722;8.736;2023-07-31T16:03:45;23.60;80.50
10459;DHT22;5277;48.722;8.736;2023-07-31T16:06:11;23.60;81.20
10459;DHT22;5277;48.722;8.736;2023-07-31T16:08:37;23.50;80.80
10459;DHT22;5277;48.722;8.736;2023-07-31T16:11:07;23.50;81.50
10459;DHT22;5277;48.722;8.736;2023-07-31T16:13:33;23.50;81.60
10459;DHT22;5277;48.722;8.736;2023-07-31T16:15:59;23.40;83.00
10459;DHT22;5277;48.722;8.736;2023-07-31T16:18:24;23.40;83.50
10459;DHT22;5277;48.722;8.736;2023-07-31T16:20:50;23.30;82.20
10459;DHT22;5277;48.722;8.736;2023-07-31T16:23:16;23.30;84.70
10459;DHT22;5277;48.722;8.736;2023-07-31T16:25:41;23.30;87.90
10459;DHT22;5277;48.722;8.736;2023-07-31T16:28:07;23.20;83.90
10459;DHT22;5277;48.722;8.736;2023-07-31T16:30:32;23.20;86.40
10459;DHT22;5277;48.722;8.736;2023-07-31T16:32:58;23.20;88.10
10459;DHT22;5277;48.722;8.736;2023-07-31T16:35:23;23.10;86.30
10459;DHT22;5277;48.722;8.736;2023-07-31T16:37:49;23.20;88.20
10459;DHT22;5277;48.722;8.736;2023-07-31T16:40:14;23.20;88.90
10459;DHT22;5277;48.722;8.736;2023-07-31T16:42:40;23.00;88.30
10459;DHT22;5277;48.722;8.736;2023-07-31T16:45:06;23.00;90.40
10459;DHT22;5277;48.722;8.736;2023-07-31T16:47:32;23.00;88.70
10459;DHT22;5277;48.722;8.736;2023-07-31T16:49:58;22.90;89.50
10459;DHT22;5277;48.722;8.736;2023-07-31T16:52:23;22.90;89.40
10459;DHT22;5277;48.722;8.736;2023-07-31T16:54:49;22.80;90.60
10459;DHT22;5277;48.722;8.736;2023-07-31T16:57:14;22.80;90.90
10459;DHT22;5277;48.722;8.736;2023-07-31T16:59:40;22.70;91.50
10459;DHT22;5277;48.722;8.736;2023-07-31T17:02:07;22.60;90.70
10459;DHT22;5277;48.722;8.736;2023-07-31T17:04:32;22.70;90.00
10459;DHT22;5277;48.722;8.736;2023-07-31T17:06:58;22.60;90.00
10459;DHT22;5277;48.722;8.736;2023-07-31T17:09:26;22.60;90.20